createdAt,value
2022-12-24T07:10:01.547Z,99578.97
2022-12-24T07:13:03.610Z,99594.53
2022-12-24T07:16:21.563Z,99599.75
2022-12-24T07:23:40.637Z,99610.56
2022-12-24T07:26:47.440Z,99599.41
2022-12-24T07:31:39.696Z,99629.44
2022-12-24T07:34:26.052Z,99634.97
2022-12-24T07:37:33.154Z,99619.16
2022-12-24T07:40:25.052Z,99641.03
2022-12-24T07:47:30.795Z,99652.09
2022-12-24T07:50:52.213Z,99664.47
2022-12-24T07:54:04.501Z,99673.06
2022-12-24T07:57:34.365Z,99647.25
2022-12-24T08:39:39.067Z,99685.97
2022-12-24T08:42:29.805Z,99682.22
2022-12-24T08:45:21.600Z,99696.59
2022-12-24T08:48:19.234Z,99708.44
2022-12-24T08:51:22.768Z,99727.34
2022-12-24T08:54:27.168Z,99717.72
2022-12-24T08:57:38.474Z,99729.44
2022-12-24T09:00:28.571Z,99729.44
2022-12-24T09:03:23.510Z,99759.59
2022-12-24T09:06:16.557Z,99763.22
2022-12-24T09:09:08.425Z,99748.00
2022-12-24T09:11:57.643Z,99754.03
2022-12-24T09:14:46.917Z,99768.44
2022-12-24T09:17:46.625Z,99761.38
2022-12-24T09:20:35.378Z,99759.81
2022-12-24T09:23:30.926Z,99760.81
2022-12-24T09:26:27.266Z,99764.25
2022-12-24T09:29:23.879Z,99755.66
2022-12-24T09:32:14.859Z,99762.16
2022-12-24T09:35:25.976Z,99771.31
2022-12-24T09:42:09.028Z,99777.38
2022-12-24T09:45:49.111Z,99777.50
2022-12-24T09:48:48.346Z,99780.19
2022-12-24T09:51:43.191Z,99789.75
2022-12-24T09:54:37.174Z,99779.88
2022-12-24T09:57:37.533Z,99789.91
2022-12-24T10:00:34.059Z,99788.59
2022-12-24T10:03:25.051Z,99794.50
2022-12-24T10:06:29.345Z,99789.34
2022-12-24T10:09:47.679Z,99797.56
2022-12-24T10:16:59.312Z,99798.09
2022-12-24T10:20:08.943Z,99809.47
2022-12-24T10:38:51.633Z,99786.63
2022-12-24T10:41:53.325Z,99793.19
2022-12-24T10:46:08.882Z,99812.03
2022-12-24T10:50:30.043Z,99793.25
2022-12-24T11:12:13.789Z,99831.03
2022-12-24T11:42:04.324Z,99805.59
2022-12-24T11:44:54.178Z,99820.13
2022-12-24T11:47:45.968Z,99800.03
2022-12-24T12:06:00.834Z,99792.84
2022-12-24T12:09:28.051Z,99792.19
2022-12-24T12:12:56.540Z,99803.38
2022-12-24T12:16:04.888Z,99781.00
2022-12-24T12:19:45.850Z,99791.84
2022-12-24T12:26:34.711Z,99784.44
2022-12-24T12:29:27.774Z,99797.81
2022-12-24T12:32:43.170Z,99805.69
2022-12-24T12:39:17.086Z,99789.00
2022-12-24T12:42:35.932Z,99804.78
2022-12-24T12:45:58.402Z,99800.78
2022-12-24T12:49:07.846Z,99803.50
2022-12-24T12:52:23.223Z,99808.00
2022-12-24T12:55:44.837Z,99804.13
2022-12-24T12:59:00.993Z,99798.25
2022-12-24T13:02:13.876Z,99810.41
2022-12-24T13:05:58.436Z,99802.41
2022-12-24T13:09:39.286Z,99811.91
2022-12-24T13:12:41.045Z,99812.56
2022-12-24T13:15:49.944Z,99823.63
2022-12-24T13:19:09.207Z,99818.53
2022-12-24T13:21:58.011Z,99819.97
2022-12-24T13:24:55.170Z,99831.44
2022-12-24T13:27:43.444Z,99815.53
2022-12-24T13:30:41.248Z,99828.28
2022-12-24T13:33:40.653Z,99834.03
2022-12-24T13:37:06.591Z,99836.84
2022-12-24T13:40:07.083Z,99845.47
2022-12-24T13:43:05.345Z,99845.09
2022-12-24T13:45:56.580Z,99843.09
2022-12-24T13:48:49.050Z,99838.63
2022-12-24T13:51:37.449Z,99830.63
2022-12-24T13:54:35.556Z,99840.75
2022-12-24T13:57:49.528Z,99845.50
2022-12-24T14:01:04.208Z,99842.88
2022-12-24T14:03:59.663Z,99851.06
2022-12-24T14:07:09.245Z,99852.41
2022-12-24T14:11:05.626Z,99847.38
2022-12-24T14:15:08.932Z,99844.09
2022-12-24T14:18:31.846Z,99852.53
2022-12-24T14:23:09.489Z,99855.69
2022-12-24T14:54:11.428Z,99862.41
2022-12-24T14:57:23.460Z,99870.72
2022-12-24T15:00:24.942Z,99854.16
2022-12-24T15:03:16.670Z,99852.91
2022-12-24T15:06:07.097Z,99876.63
2022-12-24T15:08:55.880Z,99888.53
2022-12-24T15:11:46.658Z,99893.28
2022-12-24T15:14:48.847Z,99896.94
2022-12-24T15:17:44.496Z,99889.09
2022-12-24T15:20:33.686Z,99889.34
2022-12-24T15:23:28.508Z,99902.03
2022-12-24T15:26:22.115Z,99906.03
2022-12-24T15:29:40.148Z,99918.66
2022-12-24T15:32:28.134Z,99920.53
2022-12-24T15:36:00.521Z,99932.47
2022-12-24T15:38:55.479Z,99942.00
2022-12-24T15:42:06.809Z,99945.00
2022-12-24T15:45:28.534Z,99937.44
2022-12-24T15:48:31.335Z,99936.66
2022-12-24T15:51:51.718Z,99949.78
2022-12-24T16:06:13.152Z,99946.63
2022-12-24T16:09:06.532Z,99926.91
2022-12-24T16:12:01.063Z,99939.31
2022-12-24T16:15:00.007Z,99956.56
2022-12-24T16:17:53.193Z,99950.25
2022-12-24T16:20:49.732Z,99928.56
2022-12-24T16:23:59.966Z,99939.69
2022-12-24T16:26:59.400Z,99946.72
2022-12-24T16:29:48.223Z,99958.03
2022-12-24T16:32:59.697Z,99945.97
2022-12-24T16:42:39.865Z,99954.00
2022-12-24T16:45:39.441Z,99941.16
2022-12-24T16:48:34.377Z,99951.75
2022-12-24T16:51:25.284Z,99946.41
2022-12-24T16:54:18.594Z,99970.94
2022-12-24T16:57:24.796Z,99948.63
2022-12-24T17:03:28.194Z,99951.00
2022-12-24T17:06:18.949Z,99947.56
2022-12-24T17:09:19.391Z,99954.75
2022-12-24T17:12:11.419Z,99969.50
2022-12-24T17:15:20.156Z,99968.72
2022-12-24T17:18:16.619Z,99943.81
2022-12-24T17:21:08.155Z,99962.78
2022-12-24T17:24:04.979Z,99957.50
2022-12-24T17:30:44.462Z,99951.41
2022-12-24T17:33:36.789Z,99965.47
2022-12-24T17:36:36.047Z,99965.28
2022-12-24T17:39:31.752Z,99991.00
2022-12-24T17:42:21.135Z,99972.13
2022-12-24T17:45:23.649Z,99976.59
2022-12-24T17:48:28.895Z,99986.06
2022-12-24T17:51:24.644Z,99984.88
2022-12-24T17:54:42.647Z,99993.22
2022-12-24T17:57:42.010Z,99984.34
2022-12-24T18:00:35.286Z,99989.16
2022-12-24T18:03:31.569Z,99996.09
2022-12-24T18:07:02.198Z,100006.53
2022-12-24T18:10:11.040Z,99989.94
2022-12-24T18:13:05.998Z,99998.84
2022-12-24T18:16:11.416Z,99991.78
2022-12-24T18:19:12.629Z,99965.31
2022-12-24T18:22:08.347Z,99966.34
2022-12-24T18:25:03.310Z,99982.44
2022-12-24T18:27:55.382Z,99979.28
2022-12-24T18:30:48.613Z,99985.13
2022-12-24T18:34:01.756Z,99965.09
2022-12-24T18:36:58.937Z,99976.25
2022-12-24T18:43:28.075Z,99981.16
2022-12-24T18:46:33.812Z,99991.00
2022-12-24T18:49:27.295Z,99979.44
2022-12-24T18:52:27.977Z,100009.66
2022-12-24T18:55:24.118Z,100012.56
2022-12-24T18:58:17.491Z,100016.88
2022-12-24T19:01:23.708Z,100005.72
2022-12-24T19:04:17.574Z,100013.25
2022-12-24T19:07:28.914Z,100020.56
2022-12-24T19:10:31.671Z,100018.75
2022-12-24T19:13:37.136Z,100026.16
2022-12-24T19:21:56.508Z,100050.59
2022-12-24T19:25:19.782Z,100044.28
2022-12-24T19:28:41.512Z,100058.34
2022-12-24T19:32:04.821Z,100062.50
2022-12-24T19:39:42.440Z,100051.69
2022-12-24T21:00:32.106Z,100073.25
2022-12-24T21:04:11.853Z,100062.84
